Aeroporto :
LOGIN :

Iscrizione | Disclaimer

   EN    FR    IT 

 










Sommario :    VFR   VFR Marginale   IFR   IFR Intensivo   IFR Molto Intensivo
Visibilità : 
Base nubi : 
>= 8 km
>= 3000ft
5 / 8 km
1000 / 3000 ft
1500m / 5 km
500 / 1000 ft
800 / 1500m
200 / 500 ft
< 800m
< 200 ft
Simboli :   Temporali  Nebbia  Neve Forte  Precipitazioni Forti  Vento > 20 kt
SIGMETs :   Varie  Temporali  Ghiacco  Turbolenza  Onda orograficha  Ceneri Vulcaniche






- Altitudine del aeroporto : 353 ft
- Codice IATA : ZAG


LDZA - Zagreb Pleso

ULTIMO METAR :
  • 171500Z 25017KT 180V270 CAVOK 15/05 Q1020 TEMPO 23018G28KT

METARs OBSOLETI :
  • 171430Z 25016KT 180V280 CAVOK 16/05 Q1020 TEMPO 23018G28KT
  • 171400Z 25020G33KT 180V270 CAVOK 16/05 Q1020 NOSIG
  • 171330Z 25017KT 180V270 CAVOK 16/05 Q1020 TEMPO 23018G28KT
  • 171300Z 25020KT 180V280 CAVOK 16/05 Q1021 TEMPO 23018G28KT
  • 171230Z 25020KT 180V280 9999 FEW045 16/05 Q1021 TEMPO 23018G28KT

TAF TAF LDZA
Valido dal 17 a 12 ore il 18 a 12 ore UTC


171125Z 1712/1812 23015KT CAVOK TX17/1713Z TN05/1804Z
PROB40
TEMPO 1712/1720 23017G27KT
BECMG 1723/1801 23004KT
BECMG 1807/1809 06007KT
ATIS : +385 1 6-259-214



MetMap, La meteo Aeronautica in un colpo d'occhio ! - Copyright ORBIFLY Dicembre 2007 - Disclaimer

ORBIFLY MET'MAP TEAM :

Programmazione e sviluppo : Alexandra Zaïnal
Concezione : Baudouin d'Aumeries
Aiuto per la programmazione : Marc-Olivier Méhu
Supporto tecnico e logistico : Manuel Goepfert
Aiuto per la traduzione : Arnaldo La Scala

Contatto : metmap@orbifly.com




FONTI E CREDITI :

   NOAA